createdAt,value
2023-05-21T00:00:29.543Z,8.07
2023-05-21T00:02:58.313Z,6.90
2023-05-21T00:05:25.693Z,7.10
2023-05-21T00:07:55.026Z,9.20
2023-05-21T00:10:22.350Z,9.30
2023-05-21T00:12:49.403Z,9.83
2023-05-21T00:15:16.528Z,6.77
2023-05-21T00:17:43.785Z,11.23
2023-05-21T00:20:11.306Z,7.10
2023-05-21T00:22:38.270Z,7.03
2023-05-21T00:25:05.626Z,6.97
2023-05-21T00:27:32.604Z,8.33
2023-05-21T00:29:59.647Z,7.93
2023-05-21T00:32:26.685Z,8.20
2023-05-21T00:34:54.234Z,12.27
2023-05-21T00:37:21.905Z,8.03
2023-05-21T00:39:49.350Z,10.00
2023-05-21T00:42:18.159Z,7.87
2023-05-21T00:44:46.361Z,9.20
2023-05-21T00:47:14.642Z,7.90
2023-05-21T00:49:42.288Z,9.27
2023-05-21T00:52:09.452Z,7.67
2023-05-21T00:54:36.493Z,8.30
2023-05-21T00:57:04.411Z,9.73
2023-05-21T00:59:32.633Z,8.43
2023-05-21T01:02:04.275Z,7.10
2023-05-21T01:04:32.239Z,9.83
2023-05-21T01:06:59.265Z,8.10
2023-05-21T01:09:27.357Z,7.63
2023-05-21T01:11:55.792Z,7.00
2023-05-21T01:14:24.220Z,7.80
2023-05-21T01:16:53.025Z,7.77
2023-05-21T01:19:22.693Z,7.10
2023-05-21T01:21:52.941Z,9.87
2023-05-21T01:24:20.310Z,7.77
2023-05-21T01:26:47.438Z,6.90
2023-05-21T01:29:15.005Z,7.20
2023-05-21T01:31:45.831Z,7.80
2023-05-21T01:34:15.130Z,9.43
2023-05-21T01:36:52.113Z,10.57
2023-05-21T01:39:30.050Z,9.70
2023-05-21T01:41:58.180Z,9.33
2023-05-21T01:44:27.015Z,9.07
2023-05-21T01:46:55.599Z,10.30
2023-05-21T01:49:23.431Z,8.20
2023-05-21T01:51:50.793Z,8.13
2023-05-21T01:54:17.856Z,7.87
2023-05-21T01:56:44.939Z,10.50
2023-05-21T01:59:11.970Z,8.60
2023-05-21T02:01:39.109Z,8.53
2023-05-21T02:04:07.083Z,8.27
2023-05-21T02:06:35.947Z,10.83
2023-05-21T02:09:03.909Z,9.27
2023-05-21T02:11:31.322Z,9.43
2023-05-21T02:13:58.427Z,8.03
2023-05-21T02:16:25.850Z,8.10
2023-05-21T02:18:57.511Z,9.30
2023-05-21T02:21:24.763Z,9.73
2023-05-21T02:23:51.779Z,9.17
2023-05-21T02:26:18.918Z,10.70
2023-05-21T02:28:46.074Z,10.93
2023-05-21T02:31:13.021Z,10.87
2023-05-21T02:33:43.015Z,9.73
2023-05-21T02:36:13.351Z,9.30
2023-05-21T02:38:43.767Z,10.90
2023-05-21T02:41:14.201Z,11.27
2023-05-21T02:43:41.259Z,10.13
2023-05-21T02:46:08.519Z,9.77
2023-05-21T02:48:36.006Z,9.77
2023-05-21T02:51:04.743Z,11.30
2023-05-21T02:53:32.006Z,10.47
2023-05-21T02:55:59.054Z,11.23
2023-05-21T02:58:26.401Z,10.13
2023-05-21T03:00:53.838Z,12.67
2023-05-21T03:03:21.119Z,10.20
2023-05-21T03:05:48.799Z,10.57
2023-05-21T03:08:15.901Z,12.67
2023-05-21T03:10:43.297Z,10.10
2023-05-21T03:13:10.685Z,9.60
2023-05-21T03:15:39.337Z,10.40
2023-05-21T03:18:06.766Z,10.87
2023-05-21T03:20:33.842Z,9.87
2023-05-21T03:23:04.335Z,10.67
2023-05-21T03:25:31.452Z,10.00
2023-05-21T03:27:58.701Z,11.57
2023-05-21T03:30:46.551Z,12.33
2023-05-21T03:33:34.028Z,14.33
2023-05-21T03:36:06.116Z,10.47
2023-05-21T03:38:37.202Z,10.70
2023-05-21T03:41:05.176Z,12.47
2023-05-21T03:43:32.394Z,11.17
2023-05-21T03:45:59.433Z,11.67
2023-05-21T03:48:49.905Z,10.23
2023-05-21T03:51:20.673Z,11.07
2023-05-21T03:53:47.691Z,11.80
2023-05-21T03:56:15.124Z,10.97
2023-05-21T03:58:42.362Z,10.60
2023-05-21T04:01:09.384Z,12.27
2023-05-21T04:03:38.603Z,13.23
2023-05-21T04:06:10.347Z,10.00
2023-05-21T04:08:39.736Z,12.60
2023-05-21T04:11:06.772Z,10.17
2023-05-21T04:13:34.013Z,12.77
2023-05-21T04:16:01.364Z,10.33
2023-05-21T04:18:29.160Z,11.53
2023-05-21T04:20:56.220Z,10.93
2023-05-21T04:23:23.619Z,12.63
2023-05-21T04:25:52.127Z,11.70
2023-05-21T04:28:20.231Z,10.67
2023-05-21T04:30:48.324Z,10.30
2023-05-21T04:33:20.270Z,14.77
2023-05-21T04:35:50.201Z,10.07
2023-05-21T04:38:20.984Z,14.70
2023-05-21T04:40:53.640Z,11.10
2023-05-21T04:43:26.872Z,10.47
2023-05-21T04:45:56.383Z,10.07
2023-05-21T04:48:27.589Z,10.60
2023-05-21T04:50:56.103Z,11.73
2023-05-21T04:53:23.698Z,10.53
2023-05-21T04:55:50.927Z,11.03
2023-05-21T04:58:19.358Z,10.33
2023-05-21T05:00:47.570Z,12.27
2023-05-21T05:03:16.228Z,10.63
2023-05-21T05:05:44.371Z,11.97
2023-05-21T05:08:13.868Z,11.33
2023-05-21T05:10:42.492Z,12.50
2023-05-21T05:13:09.946Z,10.40
2023-05-21T05:15:37.892Z,13.00
2023-05-21T05:18:06.713Z,9.73
2023-05-21T05:20:33.901Z,9.67
2023-05-21T05:23:00.963Z,10.17
2023-05-21T05:25:28.111Z,12.30
2023-05-21T05:27:55.048Z,14.00
2023-05-21T05:30:22.000Z,14.23
2023-05-21T05:32:49.138Z,10.67
2023-05-21T05:35:16.642Z,10.30
2023-05-21T05:37:43.860Z,12.20
2023-05-21T05:40:11.102Z,15.17
2023-05-21T05:42:38.122Z,12.37
2023-05-21T05:45:11.766Z,11.43
2023-05-21T05:47:40.264Z,11.27
2023-05-21T05:50:07.631Z,13.43
2023-05-21T05:52:34.707Z,11.47
2023-05-21T05:55:01.983Z,10.47
2023-05-21T05:57:29.020Z,10.63
2023-05-21T06:00:00.666Z,10.70
2023-05-21T06:02:27.794Z,10.80
2023-05-21T06:04:54.897Z,10.10
2023-05-21T06:07:22.384Z,10.67
2023-05-21T06:09:49.410Z,9.07
2023-05-21T06:12:16.565Z,9.30
2023-05-21T06:14:46.004Z,10.87
2023-05-21T06:17:13.286Z,10.13
2023-05-21T06:19:40.283Z,11.57
2023-05-21T06:22:07.549Z,11.57
2023-05-21T06:24:34.675Z,9.93
2023-05-21T06:27:04.090Z,10.33
2023-05-21T06:29:31.728Z,9.63
2023-05-21T06:32:01.757Z,14.50
2023-05-21T06:34:28.989Z,9.77
2023-05-21T06:36:56.067Z,11.03
2023-05-21T06:39:24.628Z,10.80
2023-05-21T06:41:51.665Z,10.30
2023-05-21T06:44:44.438Z,12.00
2023-05-21T06:47:20.181Z,10.57
2023-05-21T06:49:47.127Z,10.27
2023-05-21T06:52:14.242Z,10.38
2023-05-21T06:54:42.384Z,10.18
2023-05-21T06:57:09.597Z,11.45
2023-05-21T06:59:36.656Z,10.40
2023-05-21T07:02:04.766Z,10.70
2023-05-21T07:04:32.203Z,9.30
2023-05-21T07:06:59.173Z,10.43
2023-05-21T07:09:26.688Z,10.10
2023-05-21T07:11:53.762Z,11.75
2023-05-21T07:14:21.923Z,14.20
2023-05-21T07:16:48.979Z,12.13
2023-05-21T07:19:16.048Z,10.50
2023-05-21T07:21:43.759Z,10.90
2023-05-21T07:24:11.406Z,9.68
2023-05-21T07:26:40.600Z,11.00
2023-05-21T07:29:07.809Z,8.95
2023-05-21T07:31:34.856Z,15.63
2023-05-21T07:34:01.984Z,10.43
2023-05-21T07:36:33.549Z,13.90
2023-05-21T07:39:01.748Z,11.77
2023-05-21T07:41:29.418Z,10.40
2023-05-21T07:43:58.009Z,13.48
2023-05-21T07:46:25.106Z,11.23
2023-05-21T07:48:55.115Z,12.63
2023-05-21T07:51:22.299Z,12.50
2023-05-21T07:53:50.131Z,10.98
2023-05-21T07:56:20.088Z,12.05
2023-05-21T07:58:47.744Z,10.35
2023-05-21T08:01:15.965Z,9.77
2023-05-21T08:03:43.119Z,11.88
2023-05-21T08:06:10.221Z,12.15
2023-05-21T08:08:37.270Z,14.00
2023-05-21T08:11:04.615Z,10.65
2023-05-21T08:13:31.661Z,10.27
2023-05-21T08:15:59.002Z,10.25
2023-05-21T08:18:27.298Z,11.40
2023-05-21T08:20:56.816Z,11.57
2023-05-21T08:23:25.381Z,10.93
2023-05-21T08:25:55.322Z,13.43
2023-05-21T08:28:23.529Z,12.35
2023-05-21T08:30:51.988Z,11.50
2023-05-21T08:33:21.063Z,10.05
2023-05-21T08:35:48.731Z,11.55
2023-05-21T08:38:22.801Z,12.50
2023-05-21T08:41:02.581Z,12.52
2023-05-21T08:43:30.157Z,12.60
2023-05-21T08:46:00.508Z,12.35
2023-05-21T08:48:32.336Z,13.18
2023-05-21T08:51:03.090Z,14.15
2023-05-21T08:53:36.976Z,12.07
2023-05-21T08:56:08.123Z,12.68
2023-05-21T08:58:45.324Z,13.77
2023-05-21T09:01:13.344Z,12.30
2023-05-21T09:03:44.338Z,13.20
2023-05-21T09:06:14.093Z,13.05
2023-05-21T09:08:46.185Z,12.75
2023-05-21T09:11:27.088Z,14.95
2023-05-21T09:14:00.161Z,14.70
2023-05-21T09:16:36.702Z,15.18
2023-05-21T09:19:04.893Z,13.32
2023-05-21T09:21:35.122Z,13.68
2023-05-21T09:24:22.996Z,14.80
2023-05-21T09:26:51.300Z,12.60
2023-05-21T09:29:19.196Z,13.93
2023-05-21T09:31:46.596Z,14.40
2023-05-21T09:34:14.639Z,14.20
2023-05-21T09:36:44.107Z,14.07
2023-05-21T09:39:16.468Z,15.93
2023-05-21T09:41:44.283Z,14.50
2023-05-21T09:44:11.367Z,16.25
2023-05-21T09:46:40.658Z,15.57
2023-05-21T09:49:22.397Z,16.38
2023-05-21T09:51:49.482Z,13.75
2023-05-21T09:54:16.460Z,14.15
2023-05-21T09:56:43.575Z,16.40
2023-05-21T09:59:10.595Z,14.25
2023-05-21T10:01:38.741Z,15.27
2023-05-21T10:04:09.756Z,14.05
2023-05-21T10:06:43.801Z,15.40
2023-05-21T10:09:12.053Z,13.70
2023-05-21T10:11:43.526Z,14.43
2023-05-21T10:14:17.158Z,16.08
2023-05-21T10:16:45.101Z,11.02
2023-05-21T10:19:14.321Z,12.68
2023-05-21T10:21:42.136Z,12.80
2023-05-21T10:24:09.910Z,11.13
2023-05-21T10:26:38.451Z,12.77
2023-05-21T10:29:05.615Z,13.98
2023-05-21T10:31:33.281Z,14.70
2023-05-21T10:34:01.327Z,14.70
2023-05-21T10:36:33.753Z,16.20
2023-05-21T10:39:02.095Z,13.50
2023-05-21T10:41:37.208Z,15.75
2023-05-21T10:44:30.404Z,17.58
2023-05-21T10:47:29.307Z,15.27
2023-05-21T10:50:20.682Z,14.48
2023-05-21T10:52:47.773Z,17.67
2023-05-21T10:55:53.095Z,13.73
2023-05-21T10:58:30.005Z,16.25
2023-05-21T11:00:57.982Z,15.10
2023-05-21T11:03:25.664Z,17.10
2023-05-21T11:05:56.714Z,14.98
2023-05-21T11:08:30.600Z,18.52
2023-05-21T11:11:00.537Z,15.07
2023-05-21T11:13:28.698Z,13.43
2023-05-21T11:15:58.826Z,15.63
2023-05-21T11:18:38.457Z,16.70
2023-05-21T11:21:07.106Z,15.35
2023-05-21T11:23:58.699Z,17.80
2023-05-21T11:26:47.471Z,17.25
2023-05-21T11:29:15.065Z,17.30
2023-05-21T11:31:58.838Z,14.82
2023-05-21T11:34:28.734Z,12.20
2023-05-21T11:37:18.216Z,13.48
2023-05-21T11:39:45.868Z,13.77
2023-05-21T11:42:13.535Z,14.60
2023-05-21T11:44:42.090Z,13.05
2023-05-21T11:47:11.646Z,14.18
2023-05-21T11:49:39.306Z,16.08
2023-05-21T11:52:08.313Z,14.18
2023-05-21T11:54:46.449Z,13.50
2023-05-21T11:57:16.775Z,14.50
2023-05-21T11:59:44.181Z,12.82
2023-05-21T12:02:16.848Z,14.43
2023-05-21T12:04:44.653Z,13.55
2023-05-21T12:07:13.381Z,12.55
2023-05-21T12:09:41.074Z,13.43
2023-05-21T12:12:16.130Z,14.35
2023-05-21T12:14:48.005Z,14.60
2023-05-21T12:17:23.058Z,14.05
2023-05-21T12:19:52.308Z,15.85
2023-05-21T12:22:19.679Z,14.40
2023-05-21T12:24:47.038Z,14.07
2023-05-21T12:27:16.889Z,15.00
2023-05-21T12:29:46.048Z,14.00
2023-05-21T12:32:14.618Z,14.60
2023-05-21T12:34:51.706Z,15.45
2023-05-21T12:37:26.811Z,16.45
2023-05-21T12:40:01.343Z,15.73
2023-05-21T12:42:35.861Z,14.82
2023-05-21T12:45:09.773Z,14.48
2023-05-21T12:47:37.504Z,15.23
2023-05-21T12:50:11.754Z,17.65
2023-05-21T12:52:40.808Z,14.15
2023-05-21T12:55:11.693Z,15.65
2023-05-21T12:57:39.278Z,15.07
2023-05-21T13:00:08.910Z,14.93
2023-05-21T13:02:43.423Z,14.48
2023-05-21T13:05:17.671Z,13.65
2023-05-21T13:07:47.175Z,14.82
2023-05-21T13:10:18.504Z,16.20
2023-05-21T13:12:46.061Z,14.43
2023-05-21T13:15:13.164Z,15.07
2023-05-21T13:17:40.211Z,14.77
2023-05-21T13:20:15.232Z,15.13
2023-05-21T13:22:46.755Z,13.25
2023-05-21T13:25:17.079Z,17.80
2023-05-21T13:27:44.754Z,14.02
2023-05-21T13:30:12.181Z,13.70
2023-05-21T13:32:41.167Z,14.68
2023-05-21T13:35:08.680Z,12.98
2023-05-21T13:37:36.303Z,12.55
2023-05-21T13:40:08.231Z,14.25
2023-05-21T13:42:35.916Z,13.60
2023-05-21T13:45:03.045Z,14.10
2023-05-21T13:47:30.189Z,12.45
2023-05-21T13:49:58.176Z,13.20
2023-05-21T13:52:25.340Z,13.32
2023-05-21T13:54:52.363Z,12.10
2023-05-21T13:57:19.409Z,16.83
2023-05-21T13:59:46.690Z,14.05
2023-05-21T14:02:13.888Z,12.75
2023-05-21T14:04:41.073Z,13.27
2023-05-21T14:07:08.173Z,13.63
2023-05-21T14:09:35.760Z,13.18
2023-05-21T14:12:06.250Z,12.07
2023-05-21T14:14:33.754Z,12.82
2023-05-21T14:17:00.893Z,13.75
2023-05-21T14:19:31.629Z,12.85
2023-05-21T14:21:59.853Z,13.30
2023-05-21T14:24:26.925Z,12.88
2023-05-21T14:26:53.942Z,14.45
2023-05-21T14:29:20.998Z,14.60
2023-05-21T14:31:48.612Z,15.80
2023-05-21T14:34:15.901Z,14.02
2023-05-21T14:36:43.045Z,13.63
2023-05-21T14:39:10.090Z,14.50
2023-05-21T14:41:39.624Z,18.48
2023-05-21T14:44:06.716Z,13.23
2023-05-21T14:46:33.967Z,14.60
2023-05-21T14:49:01.189Z,12.60
2023-05-21T14:51:28.213Z,12.82
2023-05-21T14:53:57.639Z,12.85
2023-05-21T14:56:27.350Z,12.57
2023-05-21T14:58:54.793Z,13.35
2023-05-21T15:01:21.826Z,12.23
2023-05-21T15:03:49.186Z,13.00
2023-05-21T15:06:16.518Z,12.48
2023-05-21T15:08:43.585Z,12.60
2023-05-21T15:11:10.624Z,12.70
2023-05-21T15:13:38.645Z,16.38
2023-05-21T15:16:06.245Z,11.95
2023-05-21T15:18:33.445Z,13.93
2023-05-21T15:21:00.659Z,12.93
2023-05-21T15:23:27.661Z,11.85
2023-05-21T15:25:54.888Z,12.50
2023-05-21T15:28:23.140Z,12.77
2023-05-21T15:30:50.442Z,14.35
2023-05-21T15:33:17.742Z,12.02
2023-05-21T15:35:44.954Z,13.65
2023-05-21T15:38:12.547Z,13.70
2023-05-21T15:40:44.318Z,13.63
2023-05-21T15:43:11.391Z,14.55
2023-05-21T15:45:39.148Z,13.77
2023-05-21T15:48:06.958Z,12.60
2023-05-21T15:50:35.810Z,12.73
2023-05-21T15:53:04.407Z,14.38
2023-05-21T15:55:34.915Z,12.35
2023-05-21T15:58:03.418Z,16.15
2023-05-21T16:00:30.443Z,13.32
2023-05-21T16:02:57.658Z,12.98
2023-05-21T16:05:26.176Z,14.52
2023-05-21T16:07:53.061Z,13.23
2023-05-21T16:10:20.794Z,13.95
2023-05-21T16:12:47.773Z,13.57
2023-05-21T16:15:14.683Z,13.77
2023-05-21T16:17:41.796Z,15.65
2023-05-21T16:20:09.096Z,14.98
2023-05-21T16:22:36.236Z,15.15
2023-05-21T16:25:03.290Z,15.95
2023-05-21T16:27:30.353Z,13.70
2023-05-21T16:29:57.303Z,12.50
2023-05-21T16:32:24.636Z,13.23
2023-05-21T16:34:51.625Z,13.55
2023-05-21T16:37:18.528Z,13.40
2023-05-21T16:39:46.002Z,13.25
2023-05-21T16:42:12.945Z,13.35
2023-05-21T16:44:39.924Z,14.43
2023-05-21T16:47:06.902Z,14.85
2023-05-21T16:49:33.979Z,14.48
2023-05-21T16:52:01.653Z,13.88
2023-05-21T16:54:28.648Z,14.80
2023-05-21T16:56:55.987Z,13.93
2023-05-21T16:59:23.019Z,14.13
2023-05-21T17:01:50.173Z,13.75
2023-05-21T17:04:17.310Z,15.70
2023-05-21T17:06:46.426Z,14.68
2023-05-21T17:09:13.624Z,17.88
2023-05-21T17:11:42.246Z,14.82
2023-05-21T17:14:09.941Z,15.38
2023-05-21T17:16:38.317Z,14.82
2023-05-21T17:19:05.548Z,15.90
2023-05-21T17:21:32.882Z,15.57
2023-05-21T17:24:00.346Z,15.57
2023-05-21T17:26:27.510Z,15.40
2023-05-21T17:28:54.452Z,15.80
2023-05-21T17:31:22.245Z,15.18
2023-05-21T17:33:49.220Z,17.13
2023-05-21T17:36:16.334Z,16.58
2023-05-21T17:38:44.119Z,15.57
2023-05-21T17:41:11.178Z,15.75
2023-05-21T17:43:38.111Z,16.67
2023-05-21T17:46:05.121Z,20.02
2023-05-21T17:48:32.069Z,15.70
2023-05-21T17:50:59.103Z,16.25
2023-05-21T17:53:26.227Z,17.70
2023-05-21T17:55:53.351Z,16.10
2023-05-21T17:58:21.106Z,15.60
2023-05-21T18:00:48.161Z,19.52
2023-05-21T18:03:15.187Z,16.08
2023-05-21T18:05:42.328Z,18.23
2023-05-21T18:08:10.057Z,16.48
2023-05-21T18:10:37.248Z,16.40
2023-05-21T18:13:04.502Z,22.58
2023-05-21T18:15:33.089Z,16.55
2023-05-21T18:18:00.634Z,16.58
2023-05-21T18:20:27.648Z,18.15
2023-05-21T18:22:54.741Z,21.80
2023-05-21T18:25:22.019Z,17.33
2023-05-21T18:27:49.152Z,16.77
2023-05-21T18:30:16.277Z,17.48
2023-05-21T18:32:44.469Z,16.73
2023-05-21T18:35:13.651Z,16.38
2023-05-21T18:37:42.591Z,17.70
2023-05-21T18:40:10.752Z,17.90
2023-05-21T18:42:37.797Z,17.27
2023-05-21T18:45:09.231Z,16.45
2023-05-21T18:47:36.751Z,16.83
2023-05-21T18:50:04.005Z,15.50
2023-05-21T18:52:31.074Z,16.48
2023-05-21T18:54:58.038Z,8.05
2023-05-21T18:57:25.052Z,10.02
2023-05-21T18:59:52.159Z,4.38
2023-05-21T19:02:19.339Z,7.15
2023-05-21T19:04:46.533Z,5.80
2023-05-21T19:07:13.700Z,5.82
2023-05-21T19:09:40.862Z,8.88
2023-05-21T19:12:07.994Z,9.73
2023-05-21T19:14:34.952Z,12.18
2023-05-21T19:17:02.016Z,8.32
2023-05-21T19:19:29.127Z,14.25
2023-05-21T19:21:56.455Z,7.85
2023-05-21T19:24:23.455Z,8.85
2023-05-21T19:26:50.556Z,6.63
2023-05-21T19:29:17.608Z,6.10
2023-05-21T19:31:44.701Z,8.20
2023-05-21T19:34:11.832Z,8.20
2023-05-21T19:36:52.338Z,7.28
2023-05-21T19:39:20.406Z,8.38
2023-05-21T19:41:47.470Z,7.55
2023-05-21T19:44:14.503Z,10.93
2023-05-21T19:46:41.608Z,12.68
2023-05-21T19:49:10.955Z,8.85
2023-05-21T19:51:38.102Z,10.27
2023-05-21T19:54:05.093Z,10.45
2023-05-21T19:56:32.088Z,11.75
2023-05-21T19:58:59.248Z,11.27
2023-05-21T20:01:27.584Z,12.18
2023-05-21T20:03:54.565Z,12.73
2023-05-21T20:06:23.141Z,14.00
2023-05-21T20:08:51.761Z,12.77
2023-05-21T20:11:18.903Z,12.32
2023-05-21T20:13:50.556Z,14.35
2023-05-21T20:16:20.732Z,12.40
2023-05-21T20:18:47.897Z,14.77
2023-05-21T20:21:18.650Z,12.05
2023-05-21T20:23:46.046Z,12.10
2023-05-21T20:26:15.493Z,11.40
2023-05-21T20:28:43.289Z,10.32
2023-05-21T20:31:11.237Z,10.52
2023-05-21T20:33:40.792Z,10.23
2023-05-21T20:36:08.243Z,10.48
2023-05-21T20:38:37.177Z,10.23
2023-05-21T20:41:04.866Z,9.88
2023-05-21T20:43:31.817Z,9.05
2023-05-21T20:46:01.902Z,10.65
2023-05-21T20:48:29.699Z,9.55
2023-05-21T20:51:00.232Z,8.70
2023-05-21T20:53:27.681Z,10.60
2023-05-21T20:55:55.085Z,10.45
2023-05-21T20:58:23.996Z,10.10
2023-05-21T21:00:51.504Z,10.45
2023-05-21T21:03:21.649Z,10.93
2023-05-21T21:05:49.133Z,10.38
2023-05-21T21:08:16.226Z,9.65
2023-05-21T21:10:46.800Z,9.80
2023-05-21T21:13:14.774Z,9.90
2023-05-21T21:15:43.903Z,10.38
2023-05-21T21:18:12.578Z,11.07
2023-05-21T21:20:41.269Z,11.27
2023-05-21T21:23:08.978Z,11.02
2023-05-21T21:25:36.298Z,14.13
2023-05-21T21:28:03.357Z,10.88
2023-05-21T21:30:30.480Z,12.40
2023-05-21T21:32:57.788Z,10.93
2023-05-21T21:35:24.805Z,14.15
2023-05-21T21:37:51.980Z,12.43
2023-05-21T21:40:18.987Z,11.40
2023-05-21T21:42:47.820Z,13.80
2023-05-21T21:45:14.863Z,12.80
2023-05-21T21:47:41.960Z,12.38
2023-05-21T21:50:09.350Z,14.98
2023-05-21T21:52:40.208Z,14.75
2023-05-21T21:55:14.382Z,16.00
2023-05-21T21:57:41.354Z,14.57
2023-05-21T22:00:16.154Z,15.50
2023-05-21T22:02:43.853Z,13.45
2023-05-21T22:05:14.645Z,13.88
2023-05-21T22:07:46.520Z,14.60
2023-05-21T22:10:15.187Z,14.63
2023-05-21T22:12:43.074Z,16.25
2023-05-21T22:15:18.753Z,17.67
2023-05-21T22:17:47.296Z,18.75
2023-05-21T22:20:15.107Z,16.67
2023-05-21T22:22:42.193Z,16.60
2023-05-21T22:25:09.413Z,16.88
2023-05-21T22:27:36.779Z,17.15
2023-05-21T22:30:05.895Z,17.90
2023-05-21T22:32:32.921Z,21.75
2023-05-21T22:34:59.881Z,21.65
2023-05-21T22:37:27.440Z,19.25
2023-05-21T22:39:54.419Z,17.08
2023-05-21T22:42:21.607Z,17.23
2023-05-21T22:44:48.766Z,19.77
2023-05-21T22:47:16.269Z,16.63
2023-05-21T22:49:45.517Z,17.73
2023-05-21T22:52:14.627Z,21.95
2023-05-21T22:54:41.701Z,17.85
2023-05-21T22:57:08.817Z,19.15
2023-05-21T22:59:35.982Z,18.90
2023-05-21T23:02:03.119Z,20.20
2023-05-21T23:04:43.533Z,18.73
2023-05-21T23:07:12.261Z,19.85
2023-05-21T23:09:39.530Z,19.70
2023-05-21T23:12:07.175Z,19.98
2023-05-21T23:14:34.184Z,24.42
2023-05-21T23:17:04.531Z,21.83
2023-05-21T23:19:32.969Z,22.48
2023-05-21T23:22:00.568Z,21.42
2023-05-21T23:24:29.380Z,27.40
2023-05-21T23:27:01.716Z,21.73
2023-05-21T23:29:30.319Z,23.48
2023-05-21T23:31:57.817Z,22.60
2023-05-21T23:34:24.950Z,22.10
2023-05-21T23:36:53.259Z,23.52
2023-05-21T23:39:20.942Z,23.77
2023-05-21T23:41:48.150Z,24.30
2023-05-21T23:44:15.611Z,25.88
2023-05-21T23:46:45.932Z,25.48
2023-05-21T23:49:12.940Z,25.40
2023-05-21T23:51:40.345Z,22.33
2023-05-21T23:54:08.106Z,20.98
2023-05-21T23:56:35.382Z,20.73
2023-05-21T23:59:02.431Z,23.67
